createdAt,value
2018-10-09T00:02:01.504Z,93.80
2018-10-09T00:04:30.065Z,93.60
2018-10-09T00:06:58.664Z,93.50
2018-10-09T00:09:27.237Z,93.50
2018-10-09T00:11:55.937Z,93.40
2018-10-09T00:14:24.500Z,93.40
2018-10-09T00:16:53.085Z,93.40
2018-10-09T00:19:21.688Z,93.40
2018-10-09T00:21:50.299Z,93.00
2018-10-09T00:24:18.867Z,93.20
2018-10-09T00:26:47.488Z,93.30
2018-10-09T00:29:16.066Z,93.30
2018-10-09T00:31:44.643Z,93.20
2018-10-09T00:34:13.188Z,93.30
2018-10-09T00:36:41.784Z,93.10
2018-10-09T00:39:11.339Z,93.00
2018-10-09T00:41:39.934Z,93.40
2018-10-09T00:44:08.765Z,93.10
2018-10-09T00:46:37.382Z,93.00
2018-10-09T00:49:06.383Z,93.10
2018-10-09T00:51:35.010Z,93.00
2018-10-09T00:54:03.580Z,93.10
2018-10-09T00:56:32.184Z,93.00
2018-10-09T00:59:00.769Z,92.90
2018-10-09T01:01:29.381Z,93.10
2018-10-09T01:03:57.929Z,93.10
2018-10-09T01:06:26.539Z,93.20
2018-10-09T01:08:55.083Z,93.30
2018-10-09T01:11:23.658Z,93.30
2018-10-09T01:13:52.224Z,93.30
2018-10-09T01:16:20.951Z,93.30
2018-10-09T01:18:49.494Z,93.20
2018-10-09T01:21:18.108Z,93.20
2018-10-09T01:23:46.660Z,93.70
2018-10-09T01:26:15.233Z,93.80
2018-10-09T01:28:43.857Z,94.00
2018-10-09T01:31:12.420Z,93.70
2018-10-09T01:33:41.020Z,93.50
2018-10-09T01:36:09.585Z,93.30
2018-10-09T01:38:38.164Z,93.30
2018-10-09T01:41:06.923Z,93.20
2018-10-09T01:43:35.532Z,93.30
2018-10-09T01:46:04.144Z,93.40
2018-10-09T01:48:32.731Z,93.50
2018-10-09T01:51:01.293Z,93.40
2018-10-09T01:53:29.888Z,93.40
2018-10-09T01:55:58.493Z,93.40
2018-10-09T01:58:27.082Z,93.60
2018-10-09T02:00:55.657Z,93.60
2018-10-09T02:03:24.262Z,93.70
2018-10-09T02:05:52.824Z,93.70
2018-10-09T02:08:21.396Z,93.50
2018-10-09T02:10:49.968Z,93.40
2018-10-09T02:13:18.555Z,93.20
2018-10-09T02:15:47.131Z,93.10
2018-10-09T02:18:15.738Z,93.10
2018-10-09T02:20:44.327Z,93.50
2018-10-09T02:23:12.915Z,93.50
2018-10-09T02:25:41.584Z,93.50
2018-10-09T02:28:10.207Z,93.90
2018-10-09T02:30:38.780Z,94.10
2018-10-09T02:33:07.968Z,93.60
2018-10-09T02:35:36.669Z,93.80
2018-10-09T02:38:05.281Z,94.20
2018-10-09T02:40:33.836Z,94.30
2018-10-09T02:43:02.460Z,94.30
2018-10-09T02:45:31.138Z,94.30
2018-10-09T02:47:59.753Z,94.20
2018-10-09T02:50:28.311Z,94.50
2018-10-09T02:52:56.876Z,94.10
2018-10-09T02:55:25.455Z,94.10
2018-10-09T02:57:54.076Z,93.90
2018-10-09T03:00:22.620Z,94.60
2018-10-09T03:02:51.209Z,94.30
2018-10-09T03:05:20.154Z,94.40
2018-10-09T03:07:48.725Z,94.40
2018-10-09T03:10:17.305Z,94.40
2018-10-09T03:12:45.885Z,94.40
2018-10-09T03:15:14.413Z,94.50
2018-10-09T03:17:43.045Z,94.50
2018-10-09T03:20:11.644Z,94.40
2018-10-09T03:22:40.211Z,94.40
2018-10-09T03:25:08.826Z,94.20
2018-10-09T03:27:37.439Z,94.20
2018-10-09T03:30:07.928Z,94.10
2018-10-09T03:32:36.763Z,94.00
2018-10-09T03:35:05.505Z,94.00
2018-10-09T03:37:34.080Z,94.10
2018-10-09T03:40:02.698Z,94.30
2018-10-09T03:42:31.263Z,94.40
2018-10-09T03:44:59.832Z,94.70
2018-10-09T03:47:28.429Z,94.70
2018-10-09T03:49:57.016Z,94.70
2018-10-09T03:52:25.639Z,94.50
2018-10-09T03:54:54.212Z,94.30
2018-10-09T03:57:22.771Z,94.30
2018-10-09T03:59:51.337Z,94.30
2018-10-09T04:02:20.769Z,94.30
2018-10-09T04:04:49.524Z,94.20
2018-10-09T04:07:18.079Z,94.30
2018-10-09T04:09:47.058Z,94.90
2018-10-09T04:12:15.833Z,94.80
2018-10-09T04:14:44.463Z,94.80
2018-10-09T04:17:13.075Z,94.80
2018-10-09T04:19:41.672Z,94.70
2018-10-09T04:22:14.449Z,94.70
2018-10-09T04:24:43.085Z,94.70
2018-10-09T04:27:11.655Z,94.70
2018-10-09T04:29:40.289Z,94.80
2018-10-09T04:32:08.959Z,94.70
2018-10-09T04:34:37.559Z,94.60
2018-10-09T04:37:06.217Z,94.60
2018-10-09T04:39:34.998Z,94.50
2018-10-09T04:42:03.559Z,94.60
2018-10-09T04:44:32.198Z,94.60
2018-10-09T04:47:00.808Z,94.50
2018-10-09T04:49:29.397Z,94.60
2018-10-09T04:51:57.995Z,94.70
2018-10-09T04:54:26.641Z,95.00
2018-10-09T04:56:55.242Z,95.10
2018-10-09T04:59:23.879Z,95.10
2018-10-09T05:01:52.497Z,95.20
2018-10-09T05:04:21.092Z,95.10
2018-10-09T05:06:49.637Z,95.40
2018-10-09T05:09:18.238Z,95.60
2018-10-09T05:11:46.867Z,94.70
2018-10-09T05:14:15.481Z,94.40
2018-10-09T05:16:44.085Z,94.40
2018-10-09T05:19:12.687Z,94.70
2018-10-09T05:21:41.353Z,94.70
2018-10-09T05:24:09.952Z,94.60
2018-10-09T05:26:38.529Z,94.40
2018-10-09T05:29:07.147Z,94.40
2018-10-09T05:31:35.746Z,94.40
2018-10-09T05:34:04.348Z,94.60
2018-10-09T05:36:32.928Z,94.40
2018-10-09T05:39:01.501Z,94.50
2018-10-09T05:41:30.099Z,94.40
2018-10-09T05:43:58.666Z,94.40
2018-10-09T05:46:27.555Z,94.60
2018-10-09T05:48:56.229Z,94.50
2018-10-09T05:51:24.833Z,94.40
2018-10-09T05:53:53.428Z,94.30
2018-10-09T05:56:22.021Z,94.50
2018-10-09T05:58:50.593Z,94.40
2018-10-09T06:01:19.231Z,94.50
2018-10-09T06:03:47.802Z,94.40
2018-10-09T06:06:16.396Z,94.60
2018-10-09T06:08:44.975Z,94.70
2018-10-09T06:11:13.606Z,94.60
2018-10-09T06:13:42.269Z,94.90
2018-10-09T06:16:10.909Z,94.80
2018-10-09T06:18:39.611Z,94.50
2018-10-09T06:21:08.428Z,94.70
2018-10-09T06:23:37.545Z,95.40
2018-10-09T06:26:06.267Z,95.30
2018-10-09T06:28:34.942Z,95.40
2018-10-09T06:31:03.617Z,94.90
2018-10-09T06:33:32.195Z,94.80
2018-10-09T06:36:00.785Z,94.80
2018-10-09T06:38:29.404Z,94.70
2018-10-09T06:40:58.040Z,94.70
2018-10-09T06:43:28.930Z,94.70
2018-10-09T06:45:59.705Z,94.90
2018-10-09T06:48:28.313Z,95.10
2018-10-09T06:50:57.201Z,95.00
2018-10-09T06:53:25.896Z,94.90
2018-10-09T06:55:54.541Z,94.90
2018-10-09T06:58:23.197Z,94.60
2018-10-09T07:00:51.798Z,94.50
2018-10-09T07:03:20.380Z,94.20
2018-10-09T07:05:48.999Z,94.20
2018-10-09T07:08:17.632Z,94.10
2018-10-09T07:10:46.241Z,93.80
2018-10-09T07:13:14.834Z,93.70
2018-10-09T07:15:43.536Z,93.50
2018-10-09T07:18:12.107Z,93.50
2018-10-09T07:20:40.703Z,93.30
2018-10-09T07:23:09.323Z,93.30
2018-10-09T07:25:37.927Z,93.40
2018-10-09T07:28:07.254Z,93.20
2018-10-09T07:30:35.809Z,93.20
2018-10-09T07:33:04.383Z,93.10
2018-10-09T07:35:33.022Z,93.10
2018-10-09T07:38:01.576Z,93.10
2018-10-09T07:40:30.235Z,93.20
2018-10-09T07:42:58.802Z,93.20
2018-10-09T07:45:27.397Z,93.10
2018-10-09T07:47:55.963Z,93.00
2018-10-09T07:50:24.561Z,92.90
2018-10-09T07:52:53.242Z,92.80
2018-10-09T07:55:21.781Z,92.80
2018-10-09T07:57:50.481Z,92.70
2018-10-09T08:00:19.106Z,92.80
2018-10-09T08:02:47.681Z,92.70
2018-10-09T08:05:16.231Z,92.40
2018-10-09T08:07:44.852Z,92.30
2018-10-09T08:10:13.453Z,92.30
2018-10-09T08:12:42.051Z,92.30
2018-10-09T08:15:10.614Z,92.20
2018-10-09T08:17:39.249Z,92.10
2018-10-09T08:20:07.979Z,92.20
2018-10-09T08:22:36.705Z,92.10
2018-10-09T08:25:05.275Z,92.30
2018-10-09T08:27:33.929Z,92.00
2018-10-09T08:30:02.518Z,91.90
2018-10-09T08:32:31.116Z,91.70
2018-10-09T08:34:59.708Z,91.40
2018-10-09T08:37:28.293Z,91.70
2018-10-09T08:39:56.879Z,91.40
2018-10-09T08:42:25.469Z,91.40
2018-10-09T08:44:54.052Z,91.30
2018-10-09T08:47:22.667Z,90.90
2018-10-09T08:49:51.240Z,90.50
2018-10-09T08:52:19.861Z,90.10
2018-10-09T08:54:48.438Z,89.70
2018-10-09T08:57:17.060Z,88.80
2018-10-09T08:59:45.659Z,88.20
2018-10-09T09:02:14.344Z,87.70
2018-10-09T09:04:42.913Z,86.60
2018-10-09T09:07:11.652Z,86.10
2018-10-09T09:09:40.278Z,85.50
2018-10-09T09:12:08.858Z,85.60
2018-10-09T09:14:37.463Z,85.40
2018-10-09T09:17:06.113Z,85.10
2018-10-09T09:19:34.728Z,84.50
2018-10-09T09:22:03.401Z,84.00
2018-10-09T09:24:32.003Z,84.00
2018-10-09T09:27:00.960Z,84.30
2018-10-09T09:29:29.511Z,84.30
2018-10-09T09:31:58.106Z,83.60
2018-10-09T09:34:26.660Z,82.90
2018-10-09T09:36:55.271Z,81.80
2018-10-09T09:39:24.000Z,81.50
2018-10-09T09:41:52.584Z,80.70
2018-10-09T09:44:21.173Z,79.10
2018-10-09T09:46:49.778Z,79.90
2018-10-09T09:49:18.338Z,79.70
2018-10-09T09:51:46.936Z,79.50
2018-10-09T09:54:15.541Z,78.90
2018-10-09T09:56:44.102Z,78.60
2018-10-09T09:59:12.951Z,79.10
2018-10-09T10:01:42.728Z,78.90
2018-10-09T10:04:12.261Z,78.80
2018-10-09T10:06:41.130Z,79.30
2018-10-09T10:09:10.248Z,79.50
2018-10-09T10:11:38.853Z,79.00
2018-10-09T10:14:08.036Z,79.40
2018-10-09T10:16:36.667Z,79.50
2018-10-09T10:19:05.335Z,80.00
2018-10-09T10:21:33.905Z,79.80
2018-10-09T10:24:02.529Z,79.00
2018-10-09T10:26:31.109Z,78.10
2018-10-09T10:28:59.730Z,77.70
2018-10-09T10:31:28.300Z,76.60
2018-10-09T10:33:57.704Z,76.80
2018-10-09T10:36:26.252Z,76.20
2018-10-09T10:38:54.899Z,75.60
2018-10-09T10:41:23.600Z,75.50
2018-10-09T10:43:52.403Z,75.20
2018-10-09T10:46:21.040Z,74.80
2018-10-09T10:49:03.928Z,74.20
2018-10-09T10:51:32.461Z,74.20
2018-10-09T10:54:01.053Z,74.40
2018-10-09T10:56:29.878Z,72.50
2018-10-09T10:58:58.505Z,71.50
2018-10-09T11:01:27.397Z,70.00
2018-10-09T11:03:56.558Z,68.40
2018-10-09T11:06:25.352Z,67.10
2018-10-09T11:08:57.685Z,64.50
2018-10-09T11:11:26.304Z,62.00
2018-10-09T11:13:54.935Z,58.80
2018-10-09T11:16:23.571Z,56.70
2018-10-09T11:18:52.348Z,55.20
2018-10-09T11:21:21.038Z,53.70
2018-10-09T11:23:49.534Z,53.10
2018-10-09T11:26:18.107Z,51.50
2018-10-09T11:28:46.841Z,50.70
2018-10-09T11:31:15.421Z,49.30
2018-10-09T11:33:44.024Z,47.80
2018-10-09T11:36:12.647Z,46.50
2018-10-09T11:38:41.309Z,46.00
2018-10-09T11:41:09.966Z,45.90
2018-10-09T11:43:38.633Z,45.40
2018-10-09T11:46:08.055Z,44.90
2018-10-09T11:48:36.681Z,44.10
2018-10-09T11:51:05.540Z,43.70
2018-10-09T11:53:34.128Z,43.50
2018-10-09T11:56:02.737Z,42.80
2018-10-09T11:58:31.381Z,41.90
2018-10-09T12:01:02.666Z,40.70
2018-10-09T12:03:31.309Z,39.90
2018-10-09T12:05:59.891Z,39.90
2018-10-09T12:08:28.532Z,39.50
2018-10-09T12:10:57.142Z,38.80
2018-10-09T12:13:25.695Z,38.70
2018-10-09T12:15:54.321Z,37.80
2018-10-09T12:18:22.957Z,37.30
2018-10-09T12:20:51.657Z,37.10
2018-10-09T12:23:20.689Z,36.20
2018-10-09T12:25:49.298Z,35.20
2018-10-09T12:28:18.001Z,34.80
2018-10-09T12:30:46.663Z,34.80
2018-10-09T12:33:15.243Z,34.40
2018-10-09T12:35:43.803Z,33.20
2018-10-09T12:38:12.549Z,32.60
2018-10-09T12:40:41.076Z,33.10
2018-10-09T12:43:09.622Z,32.70
2018-10-09T12:45:38.334Z,32.90
2018-10-09T12:48:06.899Z,32.90
2018-10-09T12:50:35.449Z,32.90
2018-10-09T12:53:04.021Z,32.10
2018-10-09T12:55:33.455Z,32.00
2018-10-09T12:58:01.979Z,31.90
2018-10-09T13:00:30.571Z,32.40
2018-10-09T13:02:59.440Z,31.40
2018-10-09T13:05:27.996Z,31.30
2018-10-09T13:07:56.524Z,31.10
2018-10-09T13:10:25.137Z,31.40
2018-10-09T13:12:53.687Z,31.60
2018-10-09T13:15:22.274Z,31.70
2018-10-09T13:17:50.815Z,31.70
2018-10-09T13:20:19.501Z,32.00
2018-10-09T13:22:48.090Z,31.60
2018-10-09T13:25:16.622Z,32.00
2018-10-09T13:27:45.152Z,34.00
2018-10-09T13:30:13.713Z,33.10
2018-10-09T13:32:42.252Z,33.00
2018-10-09T13:35:10.814Z,31.50
2018-10-09T13:37:39.392Z,32.10
2018-10-09T13:40:07.973Z,32.40
2018-10-09T13:42:36.509Z,32.90
2018-10-09T13:45:05.595Z,33.10
2018-10-09T13:47:34.249Z,33.90
2018-10-09T13:50:02.714Z,34.30
2018-10-09T13:52:31.239Z,34.60
2018-10-09T13:54:59.853Z,35.00
2018-10-09T13:57:28.336Z,34.50
2018-10-09T13:59:56.978Z,34.70
2018-10-09T14:02:25.501Z,34.20
2018-10-09T14:04:54.044Z,35.00
2018-10-09T14:07:22.581Z,35.60
2018-10-09T14:09:51.107Z,35.70
2018-10-09T14:12:21.137Z,35.80
2018-10-09T14:14:53.074Z,35.90
2018-10-09T14:17:21.628Z,35.70
2018-10-09T14:19:50.211Z,35.80
2018-10-09T14:22:18.783Z,36.00
2018-10-09T14:24:47.296Z,36.30
2018-10-09T14:27:15.835Z,36.10
2018-10-09T14:29:44.382Z,36.60
2018-10-09T14:32:12.966Z,36.80
2018-10-09T14:34:41.567Z,37.50
2018-10-09T14:37:10.065Z,38.10
2018-10-09T14:39:38.974Z,38.50
2018-10-09T14:42:07.745Z,39.00
2018-10-09T14:44:36.394Z,39.50
2018-10-09T14:47:05.017Z,40.20
2018-10-09T14:49:33.560Z,41.10
2018-10-09T14:52:02.160Z,41.30
2018-10-09T14:54:30.714Z,41.40
2018-10-09T14:56:59.303Z,41.10
2018-10-09T14:59:27.830Z,40.90
2018-10-09T15:01:56.388Z,41.10
2018-10-09T15:04:25.151Z,40.90
2018-10-09T15:06:53.748Z,40.90
2018-10-09T15:09:22.334Z,41.60
2018-10-09T15:11:50.926Z,42.00
2018-10-09T15:14:19.456Z,42.30
2018-10-09T15:16:48.157Z,42.50
2018-10-09T15:19:16.660Z,42.70
2018-10-09T15:21:45.476Z,43.10
2018-10-09T15:24:14.211Z,43.00
2018-10-09T15:26:42.782Z,43.10
2018-10-09T15:29:11.339Z,43.30
2018-10-09T15:31:39.992Z,43.50
2018-10-09T15:34:11.289Z,43.50
2018-10-09T15:36:39.816Z,43.70
2018-10-09T15:39:10.561Z,44.20
2018-10-09T15:41:39.369Z,44.80
2018-10-09T15:44:07.966Z,45.60
2018-10-09T15:46:36.646Z,46.40
2018-10-09T15:49:05.164Z,47.00
2018-10-09T15:51:33.733Z,47.70
2018-10-09T15:54:02.949Z,48.50
2018-10-09T15:56:31.570Z,48.80
2018-10-09T15:59:00.148Z,49.10
2018-10-09T16:01:28.708Z,50.30
2018-10-09T16:03:57.583Z,50.10
2018-10-09T16:06:26.216Z,50.00
2018-10-09T16:08:54.807Z,50.10
2018-10-09T16:11:23.368Z,50.30
2018-10-09T16:13:51.873Z,50.60
2018-10-09T16:16:20.436Z,50.90
2018-10-09T16:18:48.975Z,51.50
2018-10-09T16:21:17.556Z,52.00
2018-10-09T16:23:46.098Z,53.50
2018-10-09T16:26:14.684Z,53.70
2018-10-09T16:28:43.219Z,54.80
2018-10-09T16:31:11.799Z,55.50
2018-10-09T16:33:40.382Z,56.40
2018-10-09T16:36:08.919Z,57.00
2018-10-09T16:38:37.449Z,58.00
2018-10-09T16:41:06.212Z,58.60
2018-10-09T16:43:34.772Z,59.80
2018-10-09T16:46:04.118Z,60.90
2018-10-09T16:48:32.720Z,62.00
2018-10-09T16:51:01.257Z,63.90
2018-10-09T16:53:30.115Z,63.90
2018-10-09T16:55:58.805Z,65.20
2018-10-09T16:58:27.364Z,65.90
2018-10-09T17:00:56.034Z,66.90
2018-10-09T17:03:24.562Z,67.50
2018-10-09T17:05:53.324Z,68.60
2018-10-09T17:08:21.907Z,69.00
2018-10-09T17:10:50.481Z,70.40
2018-10-09T17:13:19.035Z,72.40
2018-10-09T17:15:47.708Z,72.00
2018-10-09T17:18:16.199Z,73.10
2018-10-09T17:20:57.658Z,74.00
2018-10-09T17:23:26.174Z,74.10
2018-10-09T17:25:54.752Z,74.80
2018-10-09T17:28:23.341Z,75.20
2018-10-09T17:30:53.891Z,76.20
2018-10-09T17:33:22.928Z,75.80
2018-10-09T17:35:51.512Z,76.40
2018-10-09T17:38:21.018Z,77.20
2018-10-09T17:40:49.561Z,78.30
2018-10-09T17:43:18.115Z,78.00
2018-10-09T17:45:46.667Z,78.30
2018-10-09T17:48:15.201Z,78.70
2018-10-09T17:50:43.727Z,79.00
2018-10-09T17:53:12.273Z,79.80
2018-10-09T17:55:40.843Z,80.30
2018-10-09T17:58:09.395Z,81.20
2018-10-09T18:00:37.940Z,82.30
2018-10-09T18:03:06.648Z,82.80
2018-10-09T18:05:35.155Z,83.30
2018-10-09T18:08:03.684Z,83.30
2018-10-09T18:10:32.281Z,83.80
2018-10-09T18:13:00.818Z,84.40
2018-10-09T18:15:29.331Z,84.50
2018-10-09T18:17:57.910Z,84.90
2018-10-09T18:20:26.495Z,85.20
2018-10-09T18:22:54.990Z,85.30
2018-10-09T18:25:23.505Z,85.50
2018-10-09T18:27:52.053Z,86.00
2018-10-09T18:30:20.624Z,86.40
2018-10-09T18:32:49.527Z,86.80
2018-10-09T18:35:18.042Z,87.40
2018-10-09T18:37:46.596Z,88.00
2018-10-09T18:40:15.124Z,88.30
2018-10-09T18:42:43.681Z,88.40
2018-10-09T18:45:12.307Z,88.30
2018-10-09T18:47:45.024Z,88.60
2018-10-09T18:50:14.069Z,89.00
2018-10-09T18:52:43.208Z,89.10
2018-10-09T18:55:13.841Z,89.50
2018-10-09T18:57:42.637Z,89.50
2018-10-09T19:00:12.607Z,89.50
2018-10-09T19:02:41.201Z,89.30
2018-10-09T19:05:10.872Z,89.40
2018-10-09T19:07:39.955Z,89.50
2018-10-09T19:10:09.032Z,90.20
2018-10-09T19:12:37.855Z,90.10
2018-10-09T19:15:06.607Z,90.20
2018-10-09T19:17:35.164Z,90.10
2018-10-09T19:20:04.019Z,90.10
2018-10-09T19:22:32.570Z,90.10
2018-10-09T19:25:01.086Z,90.10
2018-10-09T19:27:29.633Z,90.10
2018-10-09T19:29:58.207Z,90.10
2018-10-09T19:32:26.804Z,90.20
2018-10-09T19:34:55.298Z,90.30
2018-10-09T19:37:23.977Z,90.70
2018-10-09T19:39:52.561Z,90.30
2018-10-09T19:42:21.077Z,90.50
2018-10-09T19:44:49.624Z,90.30
2018-10-09T19:47:18.145Z,90.30
2018-10-09T19:49:46.685Z,90.30
2018-10-09T19:52:15.217Z,90.30
2018-10-09T19:54:43.801Z,90.30
2018-10-09T19:57:12.453Z,90.60
2018-10-09T19:59:41.013Z,90.70
2018-10-09T20:02:09.578Z,90.80
2018-10-09T20:04:38.317Z,90.70
2018-10-09T20:07:06.990Z,90.90
2018-10-09T20:09:35.543Z,91.00
2018-10-09T20:12:04.060Z,91.00
2018-10-09T20:14:32.643Z,90.90
2018-10-09T20:17:01.156Z,91.00
2018-10-09T20:19:29.672Z,91.10
2018-10-09T20:21:58.184Z,91.00
2018-10-09T20:24:26.773Z,91.10
2018-10-09T20:26:55.309Z,91.20
2018-10-09T20:29:23.864Z,91.20
2018-10-09T20:31:52.384Z,91.10
2018-10-09T20:34:20.970Z,91.50
2018-10-09T20:36:49.505Z,91.60
2018-10-09T20:39:18.354Z,91.50
2018-10-09T20:41:46.903Z,91.50
2018-10-09T20:44:15.444Z,91.50
2018-10-09T20:46:43.960Z,91.60
2018-10-09T20:49:12.603Z,91.60
2018-10-09T20:51:41.118Z,91.60
2018-10-09T20:54:09.645Z,91.80
2018-10-09T20:56:38.179Z,91.90
2018-10-09T20:59:07.448Z,91.60
2018-10-09T21:01:36.215Z,91.50
2018-10-09T21:04:04.965Z,91.50
2018-10-09T21:06:33.512Z,91.50
2018-10-09T21:09:02.553Z,91.60
2018-10-09T21:11:31.179Z,91.80
2018-10-09T21:13:59.722Z,91.80
2018-10-09T21:16:28.228Z,91.80
2018-10-09T21:18:56.755Z,91.80
2018-10-09T21:21:25.294Z,91.80
2018-10-09T21:23:53.846Z,91.80
2018-10-09T21:26:22.344Z,91.90
2018-10-09T21:28:50.895Z,92.10
2018-10-09T21:31:19.415Z,92.10
2018-10-09T21:33:47.928Z,92.10
2018-10-09T21:36:16.524Z,92.30
2018-10-09T21:38:45.172Z,92.20
2018-10-09T21:41:13.711Z,92.20
2018-10-09T21:43:42.228Z,92.10
2018-10-09T21:46:10.781Z,92.50
2018-10-09T21:48:39.320Z,92.20
2018-10-09T21:51:07.847Z,92.20
2018-10-09T21:53:36.346Z,92.20
2018-10-09T21:56:04.893Z,92.20
2018-10-09T21:58:33.403Z,92.20
2018-10-09T22:01:07.355Z,92.20
2018-10-09T22:03:35.875Z,92.10
2018-10-09T22:06:04.467Z,92.10
2018-10-09T22:08:32.975Z,92.10
2018-10-09T22:11:01.501Z,92.10
2018-10-09T22:13:30.286Z,92.00
2018-10-09T22:15:58.895Z,92.00
2018-10-09T22:18:27.407Z,92.20
2018-10-09T22:20:55.963Z,92.20
2018-10-09T22:23:31.213Z,92.20
2018-10-09T22:26:00.113Z,92.20
2018-10-09T22:28:28.609Z,92.20
2018-10-09T22:30:57.118Z,92.20
2018-10-09T22:33:25.662Z,92.40
2018-10-09T22:35:54.173Z,92.40
2018-10-09T22:38:22.762Z,92.40
2018-10-09T22:40:51.256Z,92.50
2018-10-09T22:43:19.790Z,92.40
2018-10-09T22:45:50.783Z,92.30
2018-10-09T22:48:19.383Z,92.10
2018-10-09T22:50:47.943Z,92.00
2018-10-09T22:53:16.461Z,92.10
2018-10-09T22:55:44.971Z,92.10
2018-10-09T22:58:13.560Z,92.30
2018-10-09T23:00:42.149Z,92.30
2018-10-09T23:03:10.693Z,92.50
2018-10-09T23:05:39.240Z,92.60
2018-10-09T23:08:09.655Z,93.60
2018-10-09T23:10:39.741Z,93.30
2018-10-09T23:13:10.467Z,93.20
2018-10-09T23:15:40.667Z,93.20
2018-10-09T23:18:10.634Z,93.20
2018-10-09T23:20:39.230Z,93.20
2018-10-09T23:23:07.753Z,93.00
2018-10-09T23:25:36.309Z,93.20
2018-10-09T23:28:04.877Z,93.40
2018-10-09T23:30:36.691Z,93.00
2018-10-09T23:33:05.724Z,92.90
2018-10-09T23:35:34.273Z,92.80
2018-10-09T23:38:02.771Z,93.10
2018-10-09T23:40:31.304Z,92.80
2018-10-09T23:42:59.877Z,92.90
2018-10-09T23:45:28.412Z,92.90
2018-10-09T23:48:07.465Z,92.90
2018-10-09T23:50:38.129Z,92.90
2018-10-09T23:53:07.240Z,92.90
2018-10-09T23:55:36.401Z,92.70
2018-10-09T23:58:05.095Z,92.70
